createdAt,value
2019-05-19T00:02:13.526Z,99.90
2019-05-19T00:04:42.063Z,99.90
2019-05-19T00:07:10.531Z,99.90
2019-05-19T00:09:39.095Z,99.90
2019-05-19T00:12:07.709Z,99.90
2019-05-19T00:14:36.236Z,99.90
2019-05-19T00:17:05.261Z,99.90
2019-05-19T00:19:33.792Z,99.90
2019-05-19T00:22:02.247Z,99.90
2019-05-19T00:24:30.808Z,99.90
2019-05-19T00:26:59.409Z,99.90
2019-05-19T00:29:27.929Z,99.90
2019-05-19T00:31:56.455Z,99.90
2019-05-19T00:34:24.980Z,99.90
2019-05-19T00:36:53.538Z,99.90
2019-05-19T00:39:22.127Z,99.90
2019-05-19T00:41:50.639Z,99.90
2019-05-19T00:44:19.313Z,99.90
2019-05-19T00:46:48.625Z,99.90
2019-05-19T00:49:17.161Z,99.90
2019-05-19T00:51:45.690Z,99.90
2019-05-19T00:54:14.244Z,99.90
2019-05-19T00:56:43.155Z,99.90
2019-05-19T00:59:12.212Z,99.90
2019-05-19T01:01:40.852Z,99.90
2019-05-19T01:04:09.392Z,99.90
2019-05-19T01:06:37.938Z,99.90
2019-05-19T01:09:06.940Z,99.90
2019-05-19T01:11:35.480Z,99.90
2019-05-19T01:14:04.451Z,99.90
2019-05-19T01:16:33.007Z,99.90
2019-05-19T01:19:01.672Z,99.90
2019-05-19T01:21:31.355Z,99.90
2019-05-19T01:23:59.992Z,99.90
2019-05-19T01:26:28.621Z,99.90
2019-05-19T01:28:57.255Z,99.90
2019-05-19T01:31:25.842Z,99.90
2019-05-19T01:33:54.386Z,99.90
2019-05-19T01:36:23.172Z,99.90
2019-05-19T01:38:51.916Z,99.90
2019-05-19T01:41:20.455Z,99.90
2019-05-19T01:43:49.147Z,99.90
2019-05-19T01:46:17.721Z,99.90
2019-05-19T01:48:46.197Z,99.90
2019-05-19T01:51:14.662Z,99.90
2019-05-19T01:53:43.152Z,99.90
2019-05-19T01:56:11.699Z,99.90
2019-05-19T01:58:40.236Z,99.90
2019-05-19T02:01:08.799Z,99.90
2019-05-19T02:03:37.263Z,99.90
2019-05-19T02:06:05.872Z,99.90
2019-05-19T02:08:34.444Z,99.90
2019-05-19T02:11:03.243Z,99.90
2019-05-19T02:13:31.708Z,99.90
2019-05-19T02:16:00.212Z,99.90
2019-05-19T02:18:28.753Z,99.90
2019-05-19T02:20:57.322Z,99.90
2019-05-19T02:23:25.943Z,99.90
2019-05-19T02:25:54.517Z,99.90
2019-05-19T02:28:23.190Z,99.90
2019-05-19T02:30:51.714Z,99.90
2019-05-19T02:33:20.252Z,99.90
2019-05-19T02:35:48.744Z,99.90
2019-05-19T02:38:17.208Z,99.90
2019-05-19T02:40:49.083Z,99.90
2019-05-19T02:43:18.293Z,99.90
2019-05-19T02:45:48.735Z,99.90
2019-05-19T02:48:19.302Z,99.90
2019-05-19T02:50:51.944Z,99.90
2019-05-19T02:53:19.445Z,99.90
2019-05-19T02:55:49.020Z,99.90
2019-05-19T02:58:18.426Z,99.90
2019-05-19T03:00:46.984Z,99.90
2019-05-19T03:03:15.699Z,99.90
2019-05-19T03:05:44.341Z,99.90
2019-05-19T03:08:12.889Z,99.90
2019-05-19T03:10:41.566Z,99.90
2019-05-19T03:13:10.154Z,99.90
2019-05-19T03:15:38.687Z,99.90
2019-05-19T03:18:07.432Z,99.90
2019-05-19T03:20:36.065Z,99.90
2019-05-19T03:23:04.537Z,99.90
2019-05-19T03:25:33.090Z,99.90
2019-05-19T03:28:01.656Z,99.90
2019-05-19T03:30:37.901Z,99.90
2019-05-19T03:33:10.761Z,99.90
2019-05-19T03:36:20.284Z,99.90
2019-05-19T03:38:48.786Z,99.90
2019-05-19T03:41:17.321Z,99.90
2019-05-19T03:43:45.801Z,99.90
2019-05-19T03:46:14.429Z,99.90
2019-05-19T03:48:42.974Z,99.90
2019-05-19T03:51:29.395Z,99.90
2019-05-19T03:53:41.750Z,99.90
2019-05-19T03:56:10.294Z,99.90
2019-05-19T03:58:38.833Z,99.90
2019-05-19T04:01:07.480Z,99.90
2019-05-19T04:03:36.101Z,99.90
2019-05-19T04:06:04.740Z,99.90
2019-05-19T04:08:33.227Z,99.90
2019-05-19T04:11:01.715Z,99.90
2019-05-19T04:13:30.257Z,99.90
2019-05-19T04:15:58.821Z,99.90
2019-05-19T04:18:27.433Z,99.90
2019-05-19T04:20:55.893Z,99.90
2019-05-19T04:23:24.392Z,99.90
2019-05-19T04:25:52.948Z,99.90
2019-05-19T04:28:21.486Z,99.90
2019-05-19T04:30:50.074Z,99.90
2019-05-19T04:33:18.613Z,99.90
2019-05-19T04:35:47.079Z,99.90
2019-05-19T04:38:15.910Z,99.90
2019-05-19T04:40:44.523Z,99.90
2019-05-19T04:43:13.131Z,99.90
2019-05-19T04:45:41.768Z,99.90
2019-05-19T04:48:10.317Z,99.90
2019-05-19T04:50:39.430Z,99.90
2019-05-19T04:53:08.021Z,99.90
2019-05-19T04:55:36.572Z,99.90
2019-05-19T04:58:05.258Z,99.90
2019-05-19T05:00:33.831Z,99.90
2019-05-19T05:03:02.374Z,99.90
2019-05-19T05:05:30.987Z,99.90
2019-05-19T05:07:59.479Z,99.90
2019-05-19T05:10:28.085Z,99.90
2019-05-19T05:12:56.558Z,99.90
2019-05-19T05:15:25.392Z,99.90
2019-05-19T05:17:53.973Z,99.90
2019-05-19T05:20:22.493Z,99.90
2019-05-19T05:22:51.041Z,99.90
2019-05-19T05:25:19.723Z,99.90
2019-05-19T05:27:48.452Z,99.90
2019-05-19T05:30:17.113Z,99.90
2019-05-19T05:32:45.657Z,99.90
2019-05-19T05:35:14.372Z,99.90
2019-05-19T05:37:42.931Z,99.90
2019-05-19T05:40:11.781Z,99.90
2019-05-19T05:42:40.314Z,99.90
2019-05-19T05:45:09.916Z,99.90
2019-05-19T05:47:38.463Z,99.90
2019-05-19T05:50:07.176Z,99.90
2019-05-19T05:52:38.401Z,99.90
2019-05-19T05:55:06.483Z,99.90
2019-05-19T05:57:34.949Z,99.90
2019-05-19T06:00:05.176Z,99.90
2019-05-19T06:02:33.969Z,99.90
2019-05-19T06:05:02.437Z,99.90
2019-05-19T06:07:31.023Z,99.90
2019-05-19T06:09:59.560Z,99.90
2019-05-19T06:12:28.024Z,99.90
2019-05-19T06:14:57.245Z,99.90
2019-05-19T06:17:25.786Z,99.90
2019-05-19T06:19:54.331Z,99.90
2019-05-19T06:22:22.900Z,99.90
2019-05-19T06:24:51.359Z,99.90
2019-05-19T06:27:20.189Z,99.90
2019-05-19T06:29:48.692Z,99.90
2019-05-19T06:32:36.958Z,99.90
2019-05-19T06:35:05.674Z,99.90
2019-05-19T06:37:34.273Z,99.90
2019-05-19T06:40:02.833Z,99.90
2019-05-19T06:42:31.411Z,99.90
2019-05-19T06:44:59.982Z,99.90
2019-05-19T06:47:28.537Z,99.90
2019-05-19T06:49:57.117Z,99.90
2019-05-19T06:52:25.648Z,99.90
2019-05-19T06:54:54.186Z,99.90
2019-05-19T06:57:22.772Z,99.90
2019-05-19T06:59:51.389Z,99.90
2019-05-19T07:02:20.054Z,99.90
2019-05-19T07:04:48.588Z,99.90
2019-05-19T07:07:17.215Z,99.90
2019-05-19T07:09:57.801Z,99.90
2019-05-19T07:12:15.920Z,99.90
2019-05-19T07:14:44.465Z,99.90
2019-05-19T07:17:12.948Z,99.90
2019-05-19T07:19:41.429Z,99.90
2019-05-19T07:22:09.984Z,99.90
2019-05-19T07:24:38.536Z,99.90
2019-05-19T07:27:07.108Z,99.90
2019-05-19T07:29:35.567Z,99.90
2019-05-19T07:32:04.110Z,99.90
2019-05-19T07:34:32.768Z,99.90
2019-05-19T07:37:01.300Z,99.90
2019-05-19T07:39:29.833Z,99.90
2019-05-19T07:41:58.427Z,99.90
2019-05-19T07:44:26.964Z,99.90
2019-05-19T07:46:55.571Z,99.90
2019-05-19T07:49:24.064Z,99.90
2019-05-19T07:51:52.532Z,99.90
2019-05-19T07:54:21.021Z,99.90
2019-05-19T07:56:49.594Z,99.90
2019-05-19T07:59:18.134Z,99.90
2019-05-19T08:01:46.672Z,99.90
2019-05-19T08:04:15.415Z,99.90
2019-05-19T08:06:44.014Z,99.90
2019-05-19T08:09:12.477Z,99.90
2019-05-19T08:11:41.079Z,99.90
2019-05-19T08:14:09.601Z,99.90
2019-05-19T08:16:38.328Z,99.90
2019-05-19T08:19:06.986Z,99.90
2019-05-19T08:21:35.791Z,99.90
2019-05-19T08:24:05.253Z,99.90
2019-05-19T08:26:34.102Z,99.90
2019-05-19T08:29:02.912Z,99.90
2019-05-19T08:31:31.444Z,99.90
2019-05-19T08:34:00.059Z,99.90
2019-05-19T08:36:28.908Z,99.90
2019-05-19T08:38:57.444Z,99.90
2019-05-19T08:41:25.964Z,99.90
2019-05-19T08:43:54.687Z,99.90
2019-05-19T08:46:23.194Z,99.90
2019-05-19T08:48:51.737Z,99.90
2019-05-19T08:51:20.305Z,99.90
2019-05-19T08:53:48.854Z,99.90
2019-05-19T08:56:17.401Z,99.90
2019-05-19T08:58:45.972Z,99.90
2019-05-19T09:01:14.515Z,99.90
2019-05-19T09:03:43.072Z,99.90
2019-05-19T09:06:11.613Z,99.90
2019-05-19T09:08:40.099Z,99.90
2019-05-19T09:11:08.577Z,99.90
2019-05-19T09:13:37.180Z,99.90
2019-05-19T09:16:05.739Z,99.90
2019-05-19T09:18:34.264Z,99.90
2019-05-19T09:21:02.824Z,99.90
2019-05-19T09:23:31.289Z,99.90
2019-05-19T09:25:59.838Z,99.90
2019-05-19T09:28:28.544Z,99.90
2019-05-19T09:30:57.106Z,99.90
2019-05-19T09:33:25.671Z,99.90
2019-05-19T09:35:54.234Z,99.90
2019-05-19T09:38:22.743Z,99.90
2019-05-19T09:40:51.312Z,99.90
2019-05-19T09:43:19.906Z,99.90
2019-05-19T09:45:48.513Z,99.90
2019-05-19T09:48:17.041Z,99.90
2019-05-19T09:50:45.580Z,99.90
2019-05-19T09:53:14.073Z,99.90
2019-05-19T09:55:42.675Z,99.90
2019-05-19T09:58:11.286Z,99.90
2019-05-19T10:00:39.948Z,99.90
2019-05-19T10:03:08.484Z,99.90
2019-05-19T10:05:36.963Z,99.90
2019-05-19T10:08:05.564Z,99.90
2019-05-19T10:11:00.340Z,99.90
2019-05-19T10:13:28.956Z,99.90
2019-05-19T10:15:57.521Z,99.90
2019-05-19T10:18:26.079Z,99.90
2019-05-19T10:20:54.547Z,99.90
2019-05-19T10:23:23.124Z,99.90
2019-05-19T10:25:51.653Z,99.90
2019-05-19T10:28:20.515Z,99.90
2019-05-19T10:30:49.139Z,99.90
2019-05-19T10:33:17.672Z,99.90
2019-05-19T10:35:46.232Z,99.90
2019-05-19T10:38:17.835Z,99.90
2019-05-19T10:40:46.347Z,99.90
2019-05-19T10:43:14.880Z,99.90
2019-05-19T10:45:44.987Z,99.90
2019-05-19T10:48:13.518Z,99.90
2019-05-19T10:50:42.136Z,99.90
2019-05-19T10:53:10.687Z,99.90
2019-05-19T10:55:39.248Z,99.90
2019-05-19T10:58:07.710Z,99.90
2019-05-19T11:00:36.556Z,99.90
2019-05-19T11:03:05.147Z,99.90
2019-05-19T11:05:33.618Z,99.90
2019-05-19T11:08:05.211Z,99.90
2019-05-19T11:10:33.677Z,99.90
2019-05-19T11:13:02.327Z,99.90
2019-05-19T11:15:30.930Z,99.90
2019-05-19T11:17:59.389Z,99.90
2019-05-19T11:20:27.913Z,99.80
2019-05-19T11:22:56.714Z,99.60
2019-05-19T11:25:33.593Z,99.90
2019-05-19T11:27:55.527Z,99.90
2019-05-19T11:30:24.134Z,99.90
2019-05-19T11:32:52.632Z,99.90
2019-05-19T11:35:21.176Z,99.90
2019-05-19T11:37:49.659Z,99.90
2019-05-19T11:40:18.227Z,99.90
2019-05-19T11:42:47.068Z,99.90
2019-05-19T11:45:16.452Z,99.90
2019-05-19T11:47:44.988Z,99.90
2019-05-19T11:50:13.736Z,99.90
2019-05-19T11:52:42.282Z,99.90
2019-05-19T11:55:11.046Z,98.80
2019-05-19T11:57:39.591Z,98.30
2019-05-19T12:00:08.882Z,98.00
2019-05-19T12:02:39.501Z,98.70
2019-05-19T12:05:08.371Z,99.90
2019-05-19T12:07:37.067Z,99.30
2019-05-19T12:10:06.953Z,98.10
2019-05-19T12:12:35.981Z,98.70
2019-05-19T12:15:06.178Z,96.90
2019-05-19T12:17:34.703Z,95.00
2019-05-19T12:20:03.435Z,93.40
2019-05-19T12:22:31.979Z,92.40
2019-05-19T12:25:00.844Z,90.80
2019-05-19T12:27:29.434Z,87.70
2019-05-19T12:29:58.035Z,86.30
2019-05-19T12:32:26.820Z,85.20
2019-05-19T12:34:55.343Z,80.80
2019-05-19T12:37:23.810Z,75.60
2019-05-19T12:39:52.359Z,76.10
2019-05-19T12:42:20.845Z,74.40
2019-05-19T12:44:49.489Z,71.10
2019-05-19T12:47:18.034Z,73.90
2019-05-19T12:49:46.645Z,75.70
2019-05-19T12:52:15.221Z,78.40
2019-05-19T12:54:43.750Z,81.40
2019-05-19T12:57:12.399Z,83.40
2019-05-19T12:59:40.933Z,85.00
2019-05-19T13:02:09.742Z,86.70
2019-05-19T13:04:38.580Z,85.40
2019-05-19T13:07:07.173Z,81.60
2019-05-19T13:09:35.845Z,78.00
2019-05-19T13:12:04.440Z,74.40
2019-05-19T13:14:32.899Z,72.50
2019-05-19T13:17:01.397Z,68.20
2019-05-19T13:19:29.941Z,66.90
2019-05-19T13:21:58.506Z,60.90
2019-05-19T13:24:27.043Z,61.70
2019-05-19T13:26:56.779Z,66.70
2019-05-19T13:29:25.544Z,68.20
2019-05-19T13:31:54.285Z,70.50
2019-05-19T13:34:23.076Z,70.40
2019-05-19T13:36:51.616Z,71.10
2019-05-19T13:39:20.115Z,70.40
2019-05-19T13:41:48.678Z,69.10
2019-05-19T13:44:17.481Z,67.10
2019-05-19T13:46:45.982Z,67.50
2019-05-19T13:49:14.480Z,65.60
2019-05-19T13:51:43.039Z,65.90
2019-05-19T13:54:11.591Z,66.20
2019-05-19T13:56:40.174Z,66.30
2019-05-19T13:59:08.656Z,65.30
2019-05-19T14:01:38.218Z,65.20
2019-05-19T14:04:06.900Z,67.30
2019-05-19T14:06:35.376Z,67.30
2019-05-19T14:09:04.931Z,69.10
2019-05-19T14:11:33.482Z,68.40
2019-05-19T14:14:02.158Z,70.40
2019-05-19T14:16:31.758Z,73.00
2019-05-19T14:19:03.272Z,74.20
2019-05-19T14:21:32.086Z,75.90
2019-05-19T14:24:01.104Z,76.50
2019-05-19T14:26:29.757Z,76.20
2019-05-19T14:28:58.949Z,78.90
2019-05-19T14:31:27.543Z,80.00
2019-05-19T14:33:56.101Z,80.40
2019-05-19T14:36:24.788Z,80.60
2019-05-19T14:39:04.742Z,81.80
2019-05-19T14:41:33.699Z,83.00
2019-05-19T14:44:02.520Z,83.50
2019-05-19T14:46:31.218Z,79.60
2019-05-19T14:48:59.839Z,78.90
2019-05-19T14:51:28.358Z,75.20
2019-05-19T14:53:56.889Z,73.80
2019-05-19T14:56:25.633Z,71.10
2019-05-19T14:58:54.186Z,71.40
2019-05-19T15:01:22.648Z,70.90
2019-05-19T15:03:51.206Z,72.90
2019-05-19T15:06:19.894Z,73.50
2019-05-19T15:08:48.428Z,74.70
2019-05-19T15:11:16.929Z,74.40
2019-05-19T15:13:45.461Z,75.00
2019-05-19T15:16:14.023Z,75.30
2019-05-19T15:18:42.565Z,76.60
2019-05-19T15:21:11.307Z,76.60
2019-05-19T15:23:39.956Z,78.10
2019-05-19T15:26:08.499Z,77.40
2019-05-19T15:28:37.060Z,75.40
2019-05-19T15:31:05.604Z,72.50
2019-05-19T15:33:38.120Z,69.90
2019-05-19T15:36:04.551Z,69.30
2019-05-19T15:38:33.190Z,67.20
2019-05-19T15:41:01.842Z,66.00
2019-05-19T15:43:30.376Z,63.10
2019-05-19T15:45:58.885Z,62.00
2019-05-19T15:48:27.491Z,63.00
2019-05-19T15:50:56.292Z,64.60
2019-05-19T15:53:24.948Z,66.60
2019-05-19T15:55:53.497Z,68.60
2019-05-19T15:58:22.031Z,68.70
2019-05-19T16:00:50.514Z,69.30
2019-05-19T16:03:18.965Z,68.00
2019-05-19T16:05:47.457Z,67.70
2019-05-19T16:08:15.989Z,64.60
2019-05-19T16:10:44.590Z,64.80
2019-05-19T16:13:13.109Z,62.90
2019-05-19T16:17:01.220Z,61.20
2019-05-19T16:19:29.753Z,61.40
2019-05-19T16:21:58.334Z,62.80
2019-05-19T16:24:26.900Z,64.10
2019-05-19T16:26:55.526Z,66.00
2019-05-19T16:29:24.012Z,68.60
2019-05-19T16:31:52.580Z,70.60
2019-05-19T16:34:21.141Z,72.70
2019-05-19T16:36:49.697Z,74.60
2019-05-19T16:39:18.172Z,78.30
2019-05-19T16:41:46.650Z,83.50
2019-05-19T16:44:15.188Z,85.00
2019-05-19T16:46:43.744Z,84.30
2019-05-19T16:49:13.312Z,86.30
2019-05-19T16:51:41.940Z,90.60
2019-05-19T16:54:12.061Z,94.00
2019-05-19T16:56:40.575Z,93.90
2019-05-19T16:59:09.045Z,93.40
2019-05-19T17:01:38.529Z,94.40
2019-05-19T17:04:07.069Z,95.10
2019-05-19T17:06:35.572Z,96.50
2019-05-19T17:09:04.669Z,99.00
2019-05-19T17:11:33.587Z,99.90
2019-05-19T17:14:02.142Z,99.90
2019-05-19T17:16:30.673Z,99.90
2019-05-19T17:18:59.171Z,99.90
2019-05-19T17:21:27.736Z,99.90
2019-05-19T17:23:56.264Z,99.90
2019-05-19T17:26:24.827Z,99.90
2019-05-19T17:29:00.647Z,99.90
2019-05-19T17:31:23.667Z,99.90
2019-05-19T17:33:52.269Z,99.90
2019-05-19T17:36:20.867Z,99.90
2019-05-19T17:38:49.350Z,99.90
2019-05-19T17:41:17.857Z,99.90
2019-05-19T17:43:46.492Z,99.90
2019-05-19T17:46:15.052Z,99.90
2019-05-19T17:48:43.506Z,99.90
2019-05-19T17:51:12.145Z,99.90
2019-05-19T17:53:41.349Z,99.90
2019-05-19T17:56:10.155Z,99.90
2019-05-19T17:58:38.769Z,99.90
2019-05-19T18:01:07.396Z,99.90
2019-05-19T18:03:37.789Z,99.90
2019-05-19T18:06:06.260Z,99.90
2019-05-19T18:08:34.763Z,99.90
2019-05-19T18:11:03.539Z,99.90
2019-05-19T18:13:32.108Z,99.90
2019-05-19T18:16:00.869Z,99.90
2019-05-19T18:18:29.430Z,99.90
2019-05-19T18:20:58.044Z,99.90
2019-05-19T18:23:26.553Z,99.90
2019-05-19T18:25:55.097Z,99.90
2019-05-19T18:28:23.858Z,99.90
2019-05-19T18:30:52.392Z,99.90
2019-05-19T18:33:20.901Z,99.90
2019-05-19T18:35:49.508Z,99.90
2019-05-19T18:38:18.185Z,99.90
2019-05-19T18:40:46.716Z,99.90
2019-05-19T18:43:15.275Z,99.90
2019-05-19T18:45:43.737Z,99.90
2019-05-19T18:48:12.313Z,99.90
2019-05-19T18:50:40.804Z,99.90
2019-05-19T18:53:09.376Z,99.90
2019-05-19T18:55:38.016Z,99.90
2019-05-19T18:58:06.658Z,99.90
2019-05-19T19:00:39.102Z,99.90
2019-05-19T19:03:09.360Z,99.90
2019-05-19T19:05:38.031Z,99.90
2019-05-19T19:08:06.825Z,99.90
2019-05-19T19:10:35.446Z,99.90
2019-05-19T19:13:04.080Z,99.90
2019-05-19T19:15:32.820Z,99.90
2019-05-19T19:18:01.788Z,99.90
2019-05-19T19:20:30.332Z,99.90
2019-05-19T19:22:58.871Z,99.90
2019-05-19T19:25:27.517Z,99.90
2019-05-19T19:27:56.254Z,99.90
2019-05-19T19:30:26.538Z,99.90
2019-05-19T19:32:55.318Z,99.90
2019-05-19T19:35:24.127Z,99.90
2019-05-19T19:37:52.736Z,99.90
2019-05-19T19:40:31.452Z,99.90
2019-05-19T19:43:01.661Z,99.90
2019-05-19T19:45:30.764Z,99.90
2019-05-19T19:47:59.499Z,99.90
2019-05-19T19:50:28.124Z,99.90
2019-05-19T19:52:56.769Z,99.90
2019-05-19T19:55:27.328Z,99.90
2019-05-19T19:57:55.894Z,99.90
2019-05-19T20:00:36.421Z,99.90
2019-05-19T20:03:06.698Z,99.90
2019-05-19T20:05:35.237Z,99.90
2019-05-19T20:08:04.493Z,99.90
2019-05-19T20:10:33.053Z,99.90
2019-05-19T20:13:01.521Z,99.90
2019-05-19T20:15:30.449Z,99.90
2019-05-19T20:17:59.539Z,99.90
2019-05-19T20:20:29.705Z,99.90
2019-05-19T20:22:58.740Z,99.90
2019-05-19T20:25:27.725Z,99.90
2019-05-19T20:27:56.310Z,99.90
2019-05-19T20:30:35.274Z,99.90
2019-05-19T20:32:55.099Z,99.90
2019-05-19T20:35:23.631Z,99.90
2019-05-19T20:37:52.108Z,99.90
2019-05-19T20:40:20.669Z,99.90
2019-05-19T20:42:49.810Z,99.90
2019-05-19T20:45:18.436Z,99.90
2019-05-19T20:47:47.143Z,99.90
2019-05-19T20:50:15.771Z,99.90
2019-05-19T20:52:44.344Z,99.90
2019-05-19T20:55:13.040Z,99.90
2019-05-19T20:57:41.717Z,99.90
2019-05-19T21:00:12.164Z,99.90
2019-05-19T21:02:40.816Z,99.90
2019-05-19T21:05:09.586Z,99.90
2019-05-19T21:07:38.460Z,99.90
2019-05-19T21:10:07.634Z,99.90
2019-05-19T21:12:36.230Z,99.90
2019-05-19T21:15:06.004Z,99.90
2019-05-19T21:17:34.624Z,99.90
2019-05-19T21:20:04.238Z,99.90
2019-05-19T21:22:32.792Z,99.90
2019-05-19T21:25:01.343Z,99.90
2019-05-19T21:27:29.800Z,99.90
2019-05-19T21:29:58.415Z,99.90
2019-05-19T21:32:26.903Z,99.90
2019-05-19T21:34:55.396Z,99.90
2019-05-19T21:37:23.908Z,99.90
2019-05-19T21:39:52.449Z,99.90
2019-05-19T21:42:21.082Z,99.90
2019-05-19T21:44:49.537Z,99.90
2019-05-19T21:47:18.020Z,99.90
2019-05-19T21:49:46.553Z,99.90
2019-05-19T21:52:15.087Z,99.90
2019-05-19T21:54:43.662Z,99.90
2019-05-19T21:57:12.304Z,99.90
2019-05-19T21:59:40.857Z,99.90
2019-05-19T22:02:09.389Z,99.90
2019-05-19T22:04:37.921Z,99.90
2019-05-19T22:07:08.112Z,99.90
2019-05-19T22:09:36.573Z,99.90
2019-05-19T22:13:29.293Z,99.90
2019-05-19T22:16:11.577Z,99.90
2019-05-19T22:18:28.021Z,99.90
2019-05-19T22:20:56.484Z,99.90
2019-05-19T22:23:25.059Z,99.90
2019-05-19T22:25:53.527Z,99.90
2019-05-19T22:28:22.058Z,99.90
2019-05-19T22:30:50.554Z,99.90
2019-05-19T22:33:19.125Z,99.90
2019-05-19T22:35:47.674Z,99.90
2019-05-19T22:38:16.203Z,99.90
2019-05-19T22:40:44.723Z,99.90
2019-05-19T22:43:13.627Z,99.90
2019-05-19T22:45:42.258Z,99.90
2019-05-19T22:48:10.736Z,99.90
2019-05-19T22:50:39.194Z,99.90
2019-05-19T22:53:07.700Z,99.90
2019-05-19T22:55:36.239Z,99.90
2019-05-19T22:58:04.778Z,99.90
2019-05-19T23:00:33.472Z,99.90
2019-05-19T23:03:02.021Z,99.90
2019-05-19T23:05:30.526Z,99.90
2019-05-19T23:07:59.058Z,99.90
2019-05-19T23:10:27.605Z,99.90
2019-05-19T23:12:56.155Z,99.90
2019-05-19T23:15:24.860Z,99.90
2019-05-19T23:17:54.443Z,99.90
2019-05-19T23:20:23.805Z,99.90
2019-05-19T23:22:52.264Z,99.90
2019-05-19T23:25:20.849Z,99.90
2019-05-19T23:27:49.373Z,99.90
2019-05-19T23:30:18.078Z,99.90
2019-05-19T23:32:46.818Z,99.90
2019-05-19T23:35:15.688Z,99.90
2019-05-19T23:37:44.444Z,99.90
2019-05-19T23:40:13.072Z,99.90
2019-05-19T23:42:41.729Z,99.90
2019-05-19T23:45:10.395Z,99.90
2019-05-19T23:47:38.882Z,99.90
2019-05-19T23:50:07.507Z,99.90
2019-05-19T23:52:36.079Z,99.90
2019-05-19T23:55:05.953Z,99.90
2019-05-19T23:57:34.501Z,99.90
